createdAt,value
2023-05-01T00:00:52.660Z,99.9
2023-05-01T00:05:00.533Z,99.9
2023-05-01T00:07:07.123Z,99.9
2023-05-01T00:09:11.011Z,99.9
2023-05-01T00:11:14.883Z,99.9
2023-05-01T00:13:18.763Z,99.9
2023-05-01T00:15:22.618Z,99.9
2023-05-01T00:17:26.543Z,99.9
2023-05-01T00:19:30.393Z,99.9
2023-05-01T00:21:37.069Z,99.9
2023-05-01T00:23:40.978Z,99.9
2023-05-01T00:27:48.693Z,99.9
2023-05-01T00:36:06.972Z,99.9
2023-05-01T00:38:10.860Z,99.9
2023-05-01T00:47:29.806Z,99.9
2023-05-01T00:51:40.350Z,99.9
2023-05-01T00:53:44.267Z,99.9
2023-05-01T00:55:48.164Z,99.9
2023-05-01T00:57:52.025Z,99.9
2023-05-01T00:59:56.005Z,99.9
2023-05-01T01:01:59.721Z,99.9
2023-05-01T01:04:06.456Z,99.9
2023-05-01T01:06:10.334Z,99.9
2023-05-01T01:10:17.960Z,99.9
2023-05-01T01:14:25.658Z,99.9
2023-05-01T01:16:29.628Z,99.9
2023-05-01T01:18:36.191Z,99.9
2023-05-01T01:20:40.019Z,99.9
2023-05-01T01:22:43.886Z,99.9
2023-05-01T01:24:47.698Z,99.9
2023-05-01T01:26:51.564Z,99.9
2023-05-01T01:30:59.261Z,99.9
2023-05-01T01:33:06.100Z,99.9
2023-05-01T01:35:09.879Z,99.9
2023-05-01T01:37:13.708Z,99.9
2023-05-01T01:38:17.037Z,99.9
2023-05-01T01:40:20.884Z,99.9
2023-05-01T01:42:24.727Z,99.9
2023-05-01T01:44:28.566Z,99.9
2023-05-01T01:48:39.080Z,99.9
2023-05-01T01:50:42.933Z,99.9
2023-05-01T01:52:46.760Z,99.9
2023-05-01T01:54:50.639Z,99.9
2023-05-01T01:56:54.487Z,99.9
2023-05-01T01:58:58.323Z,99.9
2023-05-01T02:01:05.066Z,99.9
2023-05-01T02:03:08.985Z,99.9
2023-05-01T02:05:12.744Z,99.9
2023-05-01T02:07:16.589Z,99.9
2023-05-01T02:09:20.423Z,99.9
2023-05-01T02:11:24.279Z,99.9
2023-05-01T02:13:28.122Z,99.9
2023-05-01T02:15:34.752Z,99.9
2023-05-01T02:21:46.220Z,99.9
2023-05-01T02:25:53.878Z,99.9
2023-05-01T02:27:57.723Z,99.9
2023-05-01T02:30:04.357Z,99.9
2023-05-01T02:32:08.213Z,99.9
2023-05-01T02:34:12.027Z,99.9
2023-05-01T02:36:41.638Z,99.9
2023-05-01T02:38:45.453Z,99.9
2023-05-01T02:40:49.306Z,99.9
2023-05-01T02:42:57.439Z,99.9
2023-05-01T02:45:01.249Z,99.9
2023-05-01T02:47:05.135Z,99.9
2023-05-01T02:49:08.924Z,99.9
2023-05-01T02:51:12.731Z,99.9
2023-05-01T02:53:16.598Z,99.9
2023-05-01T02:55:20.390Z,99.9
2023-05-01T02:57:27.053Z,99.9
2023-05-01T02:59:30.883Z,99.9
2023-05-01T03:01:34.702Z,99.9
2023-05-01T03:03:38.527Z,99.9
2023-05-01T03:07:46.131Z,99.9
2023-05-01T03:09:50.038Z,99.9
2023-05-01T03:11:56.712Z,99.9
2023-05-01T03:16:04.572Z,99.9
2023-05-01T03:18:08.333Z,99.9
2023-05-01T03:20:12.054Z,99.9
2023-05-01T03:22:15.900Z,99.9
2023-05-01T03:24:19.711Z,99.9
2023-05-01T03:31:37.325Z,99.9
2023-05-01T03:33:41.086Z,99.9
2023-05-01T03:35:45.015Z,99.9
2023-05-01T03:37:48.721Z,99.9
2023-05-01T03:39:55.608Z,99.9
2023-05-01T03:41:59.264Z,99.9
2023-05-01T03:44:03.068Z,99.9
2023-05-01T03:46:06.937Z,99.9
2023-05-01T03:48:10.801Z,99.9
2023-05-01T03:50:14.522Z,99.9
2023-05-01T03:52:18.448Z,99.9
2023-05-01T03:54:25.081Z,99.9
2023-05-01T03:56:28.896Z,99.9
2023-05-01T04:00:36.530Z,99.9
2023-05-01T04:02:40.380Z,99.9
2023-05-01T04:04:44.151Z,99.9
2023-05-01T04:06:48.003Z,99.9
2023-05-01T04:08:54.595Z,99.9
2023-05-01T04:10:58.451Z,99.9
2023-05-01T04:13:02.279Z,99.9
2023-05-01T04:15:06.108Z,99.9
2023-05-01T04:17:09.908Z,99.9
2023-05-01T04:19:13.868Z,99.9
2023-05-01T04:21:17.624Z,99.9
2023-05-01T04:23:24.913Z,99.9
2023-05-01T04:25:28.070Z,99.9
2023-05-01T04:27:31.875Z,99.9
2023-05-01T04:32:42.878Z,99.9
2023-05-01T04:34:46.692Z,99.9
2023-05-01T04:41:01.018Z,99.9
2023-05-01T04:45:08.697Z,99.9
2023-05-01T04:47:12.661Z,99.9
2023-05-01T04:49:16.352Z,99.9
2023-05-01T04:51:23.019Z,99.9
2023-05-01T04:55:31.326Z,99.9
2023-05-01T04:57:34.532Z,99.9
2023-05-01T04:59:38.373Z,99.9
2023-05-01T05:01:42.232Z,99.9
2023-05-01T05:03:48.925Z,99.9
2023-05-01T05:05:52.712Z,99.9
2023-05-01T05:10:00.412Z,99.9
2023-05-01T05:18:15.867Z,99.9
2023-05-01T05:20:22.454Z,99.9
2023-05-01T05:22:26.304Z,99.9
2023-05-01T05:24:30.194Z,99.9
2023-05-01T05:25:33.517Z,99.9
2023-05-01T05:27:37.354Z,99.9
2023-05-01T05:29:41.191Z,99.9
2023-05-01T05:35:55.607Z,99.9
2023-05-01T05:40:03.325Z,99.9
2023-05-01T05:52:29.306Z,99.9
2023-05-01T05:54:33.152Z,99.9
2023-05-01T05:56:37.019Z,99.9
2023-05-01T06:02:51.570Z,99.9
2023-05-01T06:04:55.293Z,99.9
2023-05-01T06:06:59.234Z,99.9
2023-05-01T06:11:06.883Z,99.9
2023-05-01T06:13:13.897Z,99.9
2023-05-01T06:15:14.629Z,99.9
2023-05-01T06:17:21.313Z,99.9
2023-05-01T06:21:29.058Z,99.9
2023-05-01T06:32:16.990Z,99.9
2023-05-01T06:34:20.866Z,99.9
2023-05-01T06:36:24.771Z,99.9
2023-05-01T06:38:28.625Z,99.9
2023-05-01T06:40:32.479Z,99.9
2023-05-01T06:42:36.372Z,99.9
2023-05-01T06:44:43.086Z,99.9
2023-05-01T06:46:47.000Z,99.9
2023-05-01T06:52:58.570Z,99.9
2023-05-01T06:55:02.462Z,99.9
2023-05-01T06:57:06.342Z,99.9
2023-05-01T06:59:13.022Z,99.9
2023-05-01T07:01:16.968Z,99.9
2023-05-01T07:03:20.879Z,99.9
2023-05-01T07:05:24.683Z,99.9
2023-05-01T07:07:28.589Z,99.9
2023-05-01T07:09:32.473Z,99.9
2023-05-01T07:18:54.224Z,99.9
2023-05-01T07:20:58.112Z,99.9
2023-05-01T07:23:02.067Z,99.9
2023-05-01T07:25:05.932Z,99.9
2023-05-01T07:27:12.652Z,99.9
2023-05-01T07:29:16.577Z,99.9
2023-05-01T07:31:20.488Z,99.9
2023-05-01T07:33:24.381Z,99.9
2023-05-01T07:35:28.238Z,99.9
2023-05-01T07:37:32.145Z,99.9
2023-05-01T07:39:36.065Z,99.9
2023-05-01T07:49:58.543Z,99.9
2023-05-01T08:00:20.794Z,99.9
2023-05-01T08:10:43.180Z,99.9
2023-05-01T08:14:51.050Z,99.9
2023-05-01T08:15:54.450Z,99.9
2023-05-01T08:17:58.372Z,99.9
2023-05-01T08:20:02.284Z,99.9
2023-05-01T08:24:12.941Z,99.9
2023-05-01T08:26:16.891Z,99.9
2023-05-01T08:32:28.678Z,99.9
2023-05-01T08:34:33.616Z,99.9
2023-05-01T08:36:37.519Z,99.9
2023-05-01T08:38:45.810Z,99.9
2023-05-01T08:42:53.623Z,99.9
2023-05-01T08:49:05.429Z,99.9
2023-05-01T08:53:16.121Z,99.9
2023-05-01T08:57:23.956Z,99.9
2023-05-01T08:59:27.879Z,99.9
2023-05-01T09:01:31.833Z,99.9
2023-05-01T09:03:35.745Z,99.9
2023-05-01T09:05:39.631Z,99.9
2023-05-01T09:07:46.400Z,99.9
2023-05-01T09:09:50.285Z,99.9
2023-05-01T09:11:54.208Z,99.9
2023-05-01T09:12:57.593Z,99.9
2023-05-01T09:15:01.504Z,99.9
2023-05-01T09:27:27.820Z,99.9
2023-05-01T09:37:50.137Z,95.3
2023-05-01T09:39:54.083Z,90.4
2023-05-01T09:41:57.902Z,96
2023-05-01T09:44:01.813Z,96.5
2023-05-01T09:52:20.150Z,95.5
2023-05-01T09:54:24.016Z,99.6
2023-05-01T09:56:27.899Z,94
2023-05-01T09:58:31.780Z,99.6
2023-05-01T10:00:35.627Z,91.9
2023-05-01T10:11:23.604Z,93.2
2023-05-01T10:13:27.487Z,93.4
2023-05-01T10:15:31.376Z,84.4
2023-05-01T10:17:38.133Z,90.5
2023-05-01T10:19:42.740Z,90.6
2023-05-01T10:30:02.591Z,99.8
2023-05-01T10:32:09.330Z,99.8
2023-05-01T10:34:13.225Z,99.9
2023-05-01T10:38:21.019Z,99.9
2023-05-01T10:46:39.505Z,99.9
2023-05-01T10:48:43.392Z,99.9
2023-05-01T10:50:47.322Z,99.8
2023-05-01T10:52:51.249Z,99.8
2023-05-01T10:54:55.380Z,99.8
2023-05-01T10:56:59.116Z,99.8
2023-05-01T10:59:03.061Z,99.8
2023-05-01T11:05:28.882Z,99.8
2023-05-01T11:06:22.094Z,90.6
2023-05-01T11:08:26.007Z,90
2023-05-01T11:12:33.732Z,83
2023-05-01T11:14:40.483Z,61
2023-05-01T11:18:48.316Z,70.2
2023-05-01T11:22:56.142Z,70.8
2023-05-01T11:25:00.123Z,89
2023-05-01T11:27:03.989Z,90.5
2023-05-01T11:31:14.695Z,94.4
2023-05-01T11:33:18.614Z,95.2
2023-05-01T11:35:22.450Z,90.3
2023-05-01T11:37:26.359Z,82.7
2023-05-01T11:49:52.662Z,87.3
2023-05-01T11:56:13.261Z,93.3
2023-05-01T11:58:11.135Z,81.3
2023-05-01T12:02:19.011Z,86.3
2023-05-01T12:03:22.568Z,96.7
2023-05-01T12:05:26.216Z,96.1
2023-05-01T12:13:44.670Z,93.8
2023-05-01T12:15:48.590Z,93.5
2023-05-01T12:17:52.630Z,82.9
2023-05-01T12:19:56.394Z,75.6
2023-05-01T12:22:00.317Z,75.8
2023-05-01T12:24:04.209Z,75.5
2023-05-01T12:26:10.941Z,84.4
2023-05-01T12:40:41.104Z,74.2
2023-05-01T12:44:48.915Z,66.1
2023-05-01T12:46:52.984Z,55.1
2023-05-01T12:51:00.643Z,46.7
2023-05-01T12:53:04.528Z,46.6
2023-05-01T12:55:11.263Z,46.8
2023-05-01T12:57:15.174Z,52.5
2023-05-01T12:59:19.066Z,63.3
2023-05-01T13:00:22.414Z,63.5
2023-05-01T13:02:26.513Z,62.2
2023-05-01T13:04:30.329Z,51.2
2023-05-01T13:06:34.265Z,55.9
2023-05-01T13:08:40.843Z,67.9
2023-05-01T13:12:48.641Z,68
2023-05-01T13:14:52.543Z,58.2
2023-05-01T13:16:56.418Z,57.7
2023-05-01T13:21:04.192Z,61.8
2023-05-01T13:23:10.938Z,60.2
2023-05-01T13:25:14.854Z,48.4
2023-05-01T13:27:18.744Z,42.1
2023-05-01T13:31:26.665Z,37.8
2023-05-01T13:33:30.400Z,38.4
2023-05-01T13:35:34.294Z,40.4
2023-05-01T13:39:44.878Z,48.4
2023-05-01T13:41:48.766Z,48.3
2023-05-01T13:48:00.451Z,56.4
2023-05-01T13:50:04.364Z,56.6
2023-05-01T13:52:11.008Z,68.2
2023-05-01T13:56:18.769Z,90.5
2023-05-01T14:00:52.266Z,99.8
2023-05-01T14:15:22.321Z,99.9
2023-05-01T14:17:26.267Z,99.9
2023-05-01T14:19:32.954Z,99.9
2023-05-01T14:21:36.854Z,99.9
2023-05-01T14:23:40.743Z,99.9
2023-05-01T14:25:44.673Z,99.9
2023-05-01T14:27:48.563Z,99.9
2023-05-01T14:46:28.159Z,99.9
2023-05-01T14:48:34.875Z,99.9
2023-05-01T14:50:38.789Z,99.9
2023-05-01T14:52:42.699Z,99.9
2023-05-01T14:53:46.079Z,99.9
2023-05-01T14:59:57.822Z,99.9
2023-05-01T15:02:04.641Z,99.9
2023-05-01T15:04:08.585Z,99.9
2023-05-01T15:06:12.529Z,99.9
2023-05-01T15:08:16.369Z,99.9
2023-05-01T15:12:24.185Z,99.9
2023-05-01T15:31:05.153Z,99.9
2023-05-01T15:33:09.126Z,99.9
2023-05-01T15:35:13.029Z,99.9
2023-05-01T15:37:16.955Z,99.9
2023-05-01T15:39:20.879Z,99.9
2023-05-01T15:41:24.784Z,99.9
2023-05-01T15:43:28.731Z,99.9
2023-05-01T15:45:35.538Z,99.9
2023-05-01T15:47:39.489Z,99.9
2023-05-01T15:50:48.785Z,99.9
2023-05-01T15:52:50.641Z,99.9
2023-05-01T15:54:54.586Z,99.9
2023-05-01T15:56:58.511Z,99.9
2023-05-01T15:59:05.251Z,99.9
2023-05-01T16:01:09.226Z,99.9
2023-05-01T16:03:13.185Z,99.9
2023-05-01T16:05:17.039Z,99.9
2023-05-01T16:07:20.977Z,99.9
2023-05-01T16:09:24.912Z,99.9
2023-05-01T16:11:28.841Z,99.9
2023-05-01T16:13:35.606Z,99.9
2023-05-01T16:15:39.532Z,99.9
2023-05-01T16:17:44.409Z,99.9
2023-05-01T16:19:48.287Z,99.9
2023-05-01T16:21:52.209Z,99.9
2023-05-01T16:26:00.063Z,99.9
2023-05-01T16:28:06.831Z,99.9
2023-05-01T16:30:10.746Z,99.9
2023-05-01T16:32:14.715Z,99.9
2023-05-01T16:34:18.600Z,99.9
2023-05-01T16:36:22.563Z,99.9
2023-05-01T16:38:26.457Z,99.9
2023-05-01T16:40:30.394Z,99.9
2023-05-01T16:42:37.161Z,99.9
2023-05-01T16:44:41.088Z,99.9
2023-05-01T16:46:45.115Z,99.9
2023-05-01T16:47:48.439Z,99.9
2023-05-01T16:49:52.353Z,99.9
2023-05-01T16:51:56.228Z,99.9
2023-05-01T16:54:00.159Z,99.9
2023-05-01T16:56:06.966Z,99.9
2023-05-01T16:58:10.859Z,99.9
2023-05-01T17:00:14.811Z,99.9
2023-05-01T17:02:18.774Z,99.9
2023-05-01T17:04:22.787Z,99.9
2023-05-01T17:06:26.673Z,99.9
2023-05-01T17:08:30.546Z,99.9
2023-05-01T17:10:37.285Z,99.9
2023-05-01T17:12:41.349Z,99.9
2023-05-01T17:14:45.160Z,99.9
2023-05-01T17:16:50.408Z,99.9
2023-05-01T17:18:53.021Z,99.9
2023-05-01T17:20:56.973Z,99.9
2023-05-01T17:23:00.887Z,99.9
2023-05-01T17:25:07.620Z,99.9
2023-05-01T17:27:11.570Z,99.9
2023-05-01T17:29:15.471Z,99.9
2023-05-01T17:31:21.820Z,99.9
2023-05-01T17:33:23.389Z,99.9
2023-05-01T17:35:27.262Z,99.9
2023-05-01T17:37:31.212Z,99.9
2023-05-01T17:39:37.967Z,99.9
2023-05-01T17:41:41.902Z,99.9
2023-05-01T17:43:45.873Z,99.9
2023-05-01T17:46:15.547Z,99.9
2023-05-01T17:48:19.295Z,99.9
2023-05-01T17:52:29.982Z,99.9
2023-05-01T17:54:33.907Z,99.9
2023-05-01T17:56:37.817Z,99.9
2023-05-01T17:58:41.772Z,99.9
2023-05-01T18:00:45.687Z,99.9
2023-05-01T18:02:49.728Z,99.9
2023-05-01T18:04:53.545Z,99.9
2023-05-01T18:09:04.240Z,99.9
2023-05-01T18:11:08.148Z,99.9
2023-05-01T18:13:12.070Z,99.9
2023-05-01T18:15:22.097Z,99.9
2023-05-01T18:17:19.929Z,99.9
2023-05-01T18:19:23.884Z,99.9
2023-05-01T18:21:30.664Z,99.9
2023-05-01T18:23:34.531Z,99.9
2023-05-01T18:27:42.404Z,99.9
2023-05-01T18:36:00.928Z,99.9
2023-05-01T18:40:08.766Z,99.9
2023-05-01T18:41:12.121Z,99.9
2023-05-01T18:47:23.955Z,99.9
2023-05-01T18:49:30.828Z,99.9
2023-05-01T18:53:38.527Z,99.9
2023-05-01T18:57:46.351Z,99.9
2023-05-01T19:01:54.254Z,99.9
2023-05-01T19:08:08.784Z,99.9
2023-05-01T19:10:12.697Z,99.9
2023-05-01T19:18:31.203Z,99.9
2023-05-01T19:20:35.130Z,99.9
2023-05-01T19:22:39.028Z,99.9
2023-05-01T19:24:42.945Z,99.9
2023-05-01T19:26:46.873Z,99.9
2023-05-01T19:28:50.800Z,99.9
2023-05-01T19:35:05.405Z,99.9
2023-05-01T19:37:09.274Z,99.9
2023-05-01T19:38:12.658Z,99.9
2023-05-01T19:42:20.489Z,99.9
2023-05-01T19:44:24.424Z,99.9
2023-05-01T19:46:31.192Z,99.9
2023-05-01T19:48:35.115Z,99.9
2023-05-01T19:50:39.008Z,99.9
2023-05-01T19:54:46.880Z,99.9
2023-05-01T20:07:13.227Z,99.9
2023-05-01T20:09:17.107Z,99.9
2023-05-01T20:11:21.250Z,99.9
2023-05-01T20:13:24.937Z,99.9
2023-05-01T20:19:40.030Z,99.9
2023-05-01T20:23:47.313Z,99.9
2023-05-01T20:27:55.139Z,99.9
2023-05-01T20:30:02.021Z,99.9
2023-05-01T20:32:05.759Z,99.9
2023-05-01T20:34:11.181Z,99.9
2023-05-01T20:35:14.493Z,99.9
2023-05-01T20:45:36.824Z,99.9
2023-05-01T20:49:44.628Z,99.9
2023-05-01T20:51:48.561Z,99.9
2023-05-01T20:53:52.462Z,99.9
2023-05-01T20:55:56.340Z,99.9
2023-05-01T20:58:03.083Z,99.9
2023-05-01T21:00:06.982Z,99.9
2023-05-01T21:02:10.888Z,99.9
2023-05-01T21:04:14.970Z,99.9
2023-05-01T21:06:18.719Z,99.9
2023-05-01T21:12:33.153Z,99.9
2023-05-01T21:16:41.043Z,99.9
2023-05-01T21:18:44.873Z,99.9
2023-05-01T21:20:48.829Z,99.9
2023-05-01T21:22:52.654Z,99.9
2023-05-01T21:24:56.565Z,99.9
2023-05-01T21:33:40.932Z,99.9
2023-05-01T21:35:44.813Z,99.9
2023-05-01T21:50:14.762Z,99.9
2023-05-01T21:52:18.647Z,99.9
2023-05-01T21:54:25.350Z,99.9
2023-05-01T21:56:29.242Z,99.9
2023-05-01T21:58:33.154Z,99.9
2023-05-01T22:00:37.192Z,99.9
2023-05-01T22:02:41.060Z,99.9
2023-05-01T22:04:44.852Z,99.9
2023-05-01T22:06:48.818Z,99.9
2023-05-01T22:13:03.265Z,99.9
2023-05-01T22:17:11.124Z,99.9
2023-05-01T22:23:25.565Z,99.9
2023-05-01T22:25:29.473Z,99.9
2023-05-01T22:27:33.359Z,99.9
2023-05-01T22:28:36.705Z,99.9
2023-05-01T22:30:40.620Z,99.9
2023-05-01T22:32:44.546Z,99.9
2023-05-01T22:34:48.388Z,99.9
2023-05-01T22:36:55.116Z,99.9
2023-05-01T22:38:58.974Z,99.9
2023-05-01T22:41:02.883Z,99.9
2023-05-01T22:43:06.742Z,99.9
2023-05-01T22:45:10.623Z,99.9
2023-05-01T22:47:14.548Z,99.9
2023-05-01T22:49:18.396Z,99.9
2023-05-01T22:51:25.092Z,99.9
2023-05-01T22:53:28.995Z,99.9
2023-05-01T22:55:32.891Z,99.9
2023-05-01T22:57:36.736Z,99.9
2023-05-01T22:59:40.676Z,99.9
2023-05-01T23:03:48.429Z,99.9
2023-05-01T23:05:55.042Z,99.9
2023-05-01T23:10:02.930Z,99.9
2023-05-01T23:16:14.445Z,99.9
2023-05-01T23:22:28.802Z,99.9
2023-05-01T23:25:36.000Z,99.9
2023-05-01T23:27:40.437Z,99.9
2023-05-01T23:29:43.750Z,99.9
2023-05-01T23:31:47.981Z,99.9
2023-05-01T23:33:54.306Z,99.9
2023-05-01T23:35:58.198Z,99.9
2023-05-01T23:38:02.067Z,99.9
2023-05-01T23:40:05.955Z,99.9
2023-05-01T23:42:09.837Z,99.9
2023-05-01T23:52:32.062Z,99.9
2023-05-01T23:58:43.718Z,99.9
